• Join FlightAware (Why Join?)
  • Login
  • US Flag 
11:48AM EST


 

Airport Tracker/Info


-or-


 

Live Flight TrackerFlight Track Log ✈ N8414Z ✈ 20-Jun-2014 ✈ KALB - KROC

Flight Track Log - Related Links

Times and Time Zones

All times are in EDT time to prevent confusion due to time zone crossing. See the N8414Z flight status page for this flight to view local times or setup timezone preferences in your user account.

Time Position Orientation Groundspeed Altitude Reporting Facility
EDT Latitude Longitude Course Direction KTS MPH feet Rate Location/Type
02:10PM 42.7092 -73.7278 278° West 119 137 4,400  Level Boston Center
02:11PM 42.7331 -73.7533 322° Northwest 118 136 4,500 85 Climbing Boston Center
02:11PM 42.7397 -73.7614 318° Northwest 115 132 4,500  Level Boston Center
02:12PM 42.7547 -73.7825 314° West 113 130 4,500 58 Level Boston Center
02:13PM 42.7750 -73.8194 307° West 114 131 4,600 82 Climbing Boston Center
02:13PM 42.7786 -73.8297 296° West 121 139 4,600 -94 Level Boston Center
02:14PM 42.7897 -73.8606 296° West 118 136 4,500  Descending Boston Center
02:15PM 42.7731 -74.0820 278° West  Level FlightAware Approximate
02:15PM 42.8044 -73.9114 292° West 127 146 4,600  Level Boston Center
02:16PM 42.8131 -73.9517 286° West 124 143 5,100 763 Climbing Boston Center
02:17PM 42.8219 -73.9886 288° West 105 121 6,100 850 Climbing Boston Center
02:18PM 42.8286 -74.0247 284° West 90 104 6,900 726 Climbing Boston Center
02:19PM 42.8283 -74.0597 269° West 95 109 7,600 738 Climbing Boston Center
02:20PM 42.8206 -74.0997 255° West 101 116 8,400 492 Climbing Boston Center
02:21PM 42.8139 -74.1394 257° West 106 122 8,600 49 Climbing Boston Center
02:22PM 42.8064 -74.1869 258° West 126 145 8,500 -50 Descending Boston Center
02:23PM 42.8128 -74.2356 280° West 127 146 8,500  Level Boston Center
02:24PM 42.8189 -74.2819 280° West 124 143 8,500 75 Level Boston Center
02:24PM 42.8194 -74.2953 273° West 119 137 8,600  Climbing Boston Center
02:25PM 42.8239 -74.3297 280° West 120 138 8,500  Descending Boston Center
02:25PM 42.8233 -74.3397 266° West 117 135 8,600  Climbing Boston Center
02:26PM 42.8275 -74.3722 280° West 116 133 8,500  Descending Boston Center
02:26PM 42.8272 -74.3842 268° West 117 135 8,600  Climbing Boston Center
02:27PM 42.8336 -74.4200 284° West 123 142 8,500  Descending Boston Center
02:27PM 42.8342 -74.4356 273° West 128 147 8,600 100 Climbing Boston Center
02:28PM 42.8397 -74.4703 282° West 124 143 8,600  Level Boston Center
02:28PM 42.8411 -74.4867 277° West 125 144 8,600  Level Boston Center
02:29PM 42.8458 -74.5161 282° West 124 143 8,600  Level Boston Center
02:30PM 42.8486 -74.5350 281° West 123 142 8,600  Level Boston Center
02:30PM 42.8514 -74.5614 278° West 124 143 8,600  Level Boston Center
02:30PM 42.8528 -74.5767 277° West 120 138 8,600  Level Boston Center
02:31PM 42.8572 -74.6097 280° West 123 142 8,600  Level Boston Center
02:31PM 42.8583 -74.6219 277° West 121 139 8,600  Level Boston Center
02:32PM 42.8636 -74.6542 283° West 122 140 8,600  Level Boston Center
02:33PM 42.8692 -74.7017 279° West 123 142 8,600  Level Boston Center
02:34PM 42.8756 -74.7517 280° West 123 142 8,600  Level Boston Center
02:35PM 42.8789 -74.8044 275° West 129 148 8,600  Level Boston Center
02:36PM 42.8844 -74.8428 281° West 127 146 8,600  Level Boston Center
02:37PM 42.8864 -74.8647 277° West 133 153 8,600  Level Boston Center
02:37PM 42.8917 -74.9006 281° West 128 147 8,600  Level Boston Center
02:38PM 42.8931 -74.9158 277° West 128 147 8,600  Level Boston Center
02:38PM 42.8950 -74.9458 275° West 127 146 8,600  Level Boston Center
02:39PM 42.8967 -74.9606 279° West 123 142 8,600  Level Boston Center
02:39PM 42.9014 -74.9919 282° West 127 146 8,600  Level Boston Center
02:40PM 42.9014 -75.0111 270° West 131 151 8,600  Level Boston Center
02:40PM 42.9056 -75.0439 280° West 127 146 8,600  Level Boston Center
02:41PM 42.9086 -75.0597 285° West 130 150 8,600  Level Boston Center
02:41PM 42.9103 -75.0917 274° West 128 147 8,600  Level Boston Center
02:42PM 42.9111 -75.1097 274° West 127 146 8,600  Level Boston Center
02:42PM 42.9153 -75.1397 281° West 128 147 8,600  Level Boston Center
02:43PM 42.9164 -75.1578 275° West 129 148 8,600  Level Boston Center
02:44PM 42.9214 -75.1958 280° West 127 146 8,600  Level Boston Center
02:45PM 42.9269 -75.2411 280° West 125 144 8,600  Level Boston Center
02:46PM 42.9297 -75.2872 275° West 125 144 8,600  Level Boston Center
02:47PM 42.9369 -75.3344 282° West 125 144 8,600  Level Boston Center
02:48PM 42.9419 -75.3803 278° West 124 143 8,600 52 Level Boston Center
02:49PM 42.9467 -75.4311 277° West 128 147 8,700  Climbing Boston Center
02:50PM 42.9536 -75.4797 281° West 127 146 8,600 -82 Descending Boston Center
02:50PM 42.9522 -75.4772 127° Southeast 125 144 8,600  Level Boston Center
02:51PM 42.9581 -75.5350 278° West 125 144 8,600  Level Boston Center
02:52PM 42.9614 -75.5753 276° West 124 143 8,600 92 Level Boston Center
02:52PM 42.9622 -75.5819 280° West 126 145 8,700 100 Climbing Boston Center
02:53PM 42.9642 -75.6225 274° West 126 145 8,700  Level Boston Center
02:53PM 42.9664 -75.6278 300° West 125 144 8,700 -83 Level Boston Center
02:54PM 42.9717 -75.6767 278° West 125 144 8,600  Descending Boston Center
02:55PM 42.9750 -75.7247 275° West 129 148 8,700 50 Climbing Boston Center
02:56PM 42.9814 -75.7761 280° West 129 148 8,700  Level Boston Center
02:57PM 42.9878 -75.8278 280° West 127 146 8,700  Level Boston Center
02:58PM 42.9928 -75.8758 278° West 129 148 8,700 -50 Level Boston Center
02:59PM 42.9975 -75.9239 278° West 127 146 8,600  Descending Boston Center
03:00PM 43.0022 -75.9719 278° West 126 145 8,700 85 Climbing Boston Center
03:00PM 43.0028 -75.9742 289° West 127 146 8,700  Level Boston Center
03:01PM 43.0075 -76.0233 277° West 127 146 8,700  Level Boston Center
03:02PM 43.0122 -76.0653 279° West 126 145 8,700  Level Boston Center
03:03PM 43.0169 -76.1192 277° West 128 147 8,700  Level Boston Center
03:04PM 43.0219 -76.1706 278° West 132 152 8,700  Level Boston Center
03:05PM 43.0264 -76.2214 277° West 131 151 8,700  Level Boston Center
03:06PM 43.0308 -76.2694 277° West 128 147 8,700  Level Boston Center
03:07PM 43.0358 -76.3147 279° West 130 150 8,700  Level Boston Center
03:07PM 43.0361 -76.3250 272° West 130 150 8,700  Level Boston Center
03:08PM 43.0406 -76.3631 279° West 132 152 8,700  Level Boston Center
03:08PM 43.0417 -76.3739 278° West 130 150 8,700  Level Boston Center
03:09PM 43.0450 -76.4111 277° West 129 148 8,700  Level Boston Center
03:09PM 43.0461 -76.4231 277° West 130 150 8,700  Level Boston Center
03:10PM 43.0492 -76.4619 276° West 131 151 8,700  Level Boston Center
03:10PM 43.0500 -76.4722 276° West 130 150 8,700  Level Boston Center
03:11PM 43.0547 -76.5164 278° West 133 153 8,700  Level Boston Center
03:11PM 43.0550 -76.5225 274° West 130 150 8,700  Level Boston Center
03:12PM 43.0603 -76.5708 279° West 134 154 8,700  Level Boston Center
03:12PM 43.0606 -76.5839 272° West 132 152 8,700  Level Boston Center
03:13PM 43.0636 -76.6128 278° West 134 154 8,700  Level Boston Center
03:13PM 43.0661 -76.6328 280° West 132 152 8,700 -71 Level Boston Center
03:14PM 43.0708 -76.6836 277° West 133 153 8,600 -288 Descending Boston Center
03:15PM 43.0767 -76.7342 279° West 133 153 8,100 -446 Descending Boston Center
03:16PM 43.0811 -76.7858 277° West 134 154 7,700 -393 Descending Boston Center
03:18PM 43.0861 -76.8375 278° West 135 155 7,300 -474 Descending Boston Center
03:18PM 43.0906 -76.8881 277° West 135 155 6,800 -480 Descending Cleveland Center
03:19PM 43.0953 -76.9319 278° West 139 160 6,500 -290 Descending Cleveland Center
03:19PM 43.0953 -76.9400 270° West 135 155 6,500  Level Cleveland Center
03:20PM 43.0983 -76.9875 275° West 138 159 6,500  Level Cleveland Center
03:20PM 43.0997 -76.9908 300° West 135 155 6,500 98 Level Cleveland Center
03:21PM 43.1019 -77.0378 274° West 132 152 6,600 97 Climbing Cleveland Center
03:21PM 43.1028 -77.0406 292° West 135 155 6,600 -100 Level Cleveland Center
03:22PM 43.1061 -77.0850 276° West 132 152 6,500 -97 Descending Cleveland Center
03:23PM 43.1061 -77.0908 270° West 134 154 6,500 90 Level Cleveland Center
03:23PM 43.1111 -77.1414 278° West 133 153 6,600  Climbing Cleveland Center
03:24PM 43.1133 -77.1511 287° West 134 154 6,500  Descending Cleveland Center
03:25PM 43.1169 -77.2014 276° West 134 154 6,600 53 Climbing Cleveland Center
03:25PM 43.1219 -77.2483 278° West 134 154 6,600  Level Cleveland Center
03:26PM 43.1217 -77.2517 263° West 134 154 6,600 -90 Level Cleveland Center
03:27PM 43.1289 -77.3050 281° West 135 155 6,500 -51 Descending Cleveland Center
03:28PM 43.1342 -77.3586 278° West 136 157 6,500 -94 Level Cleveland Center
03:29PM 43.1369 -77.4144 274° West 137 158 6,300 -283 Descending Cleveland Center
03:30PM 43.1442 -77.4683 280° West 142 163 5,900 -422 Descending Cleveland Center
03:31PM 43.1481 -77.5303 275° West 144 166 5,400 -328 Descending Cleveland Center
03:32PM 43.1531 -77.5775 278° West 142 163 5,200 -313 Descending Cleveland Center
03:33PM 43.1567 -77.6342 275° West 145 167 4,800 -375 Descending Cleveland Center
03:33PM 43.1603 -77.6697 278° West 143 165 4,600 -257 Descending Cleveland Center
03:34PM 43.1619 -77.6856 278° West 143 165 4,500 -492 Descending Cleveland Center
03:34PM 43.1653 -77.7233 277° West 139 160 4,100 -667 Descending Cleveland Center
03:35PM 43.1683 -77.7475 280° West 142 163 3,800 -391 Descending Cleveland Center
03:36PM 43.1739 -77.7914 280° West 135 155 3,500 -290 Descending Cleveland Center
03:38PM 43.1667 -77.8619 270° West  Level FlightAware Approximate
03:45PM 43.1667 -77.9000 270° West  Level FlightAware Approximate
03:46PM 43.1339 -77.9000 180° South  Level FlightAware Approximate
03:47PM 43.1667 -77.9000 270° West  Level FlightAware Approximate
03:48PM 43.1339 -77.9000 180° South  Level FlightAware Approximate
03:49PM 43.1667 -77.9000 270° West  Level FlightAware Approximate
03:50PM 43.1339 -77.9000 180° South  Level FlightAware Approximate
03:51PM 43.1667 -77.9000 270° West  Level FlightAware Approximate
03:52PM 43.1339 -77.9000 180° South  Level FlightAware Approximate
03:53PM 43.1667 -77.9000 270° West  Level FlightAware Approximate
03:54PM 43.1339 -77.9000 180° South  Level FlightAware Approximate
03:55PM 43.1667 -77.9000 270° West  Level FlightAware Approximate
03:56PM 43.1339 -77.9000 180° South  Level FlightAware Approximate
03:57PM 43.1667 -77.9000 270° West  Level FlightAware Approximate
03:58PM 43.1339 -77.9000 180° South  Level FlightAware Approximate